createdAt,value
2018-07-08T00:02:14.028Z,49.40
2018-07-08T00:04:42.721Z,49.30
2018-07-08T00:09:45.639Z,48.70
2018-07-08T00:12:14.332Z,47.90
2018-07-08T00:14:43.148Z,47.80
2018-07-08T00:17:12.092Z,47.60
2018-07-08T00:19:40.791Z,47.60
2018-07-08T00:22:10.556Z,47.20
2018-07-08T00:27:07.684Z,47.30
2018-07-08T00:29:36.565Z,47.10
2018-07-08T00:32:05.642Z,47.00
2018-07-08T00:34:34.328Z,46.70
2018-07-08T00:37:03.714Z,46.50
2018-07-08T00:39:32.521Z,46.60
2018-07-08T00:42:01.156Z,48.40
2018-07-08T00:44:29.843Z,50.10
2018-07-08T00:46:58.546Z,50.50
2018-07-08T00:49:27.300Z,50.50
2018-07-08T00:51:55.936Z,50.60
2018-07-08T00:54:24.640Z,51.60
2018-07-08T00:56:53.318Z,51.40
2018-07-08T00:59:21.980Z,51.40
2018-07-08T01:01:50.703Z,51.60
2018-07-08T01:04:19.364Z,51.70
2018-07-08T01:06:48.004Z,51.80
2018-07-08T01:09:16.699Z,52.60
2018-07-08T01:11:45.348Z,52.10
2018-07-08T01:14:13.992Z,52.10
2018-07-08T01:16:42.651Z,52.70
2018-07-08T01:19:11.316Z,53.00
2018-07-08T01:21:40.065Z,53.30
2018-07-08T01:24:08.731Z,53.90
2018-07-08T01:26:37.858Z,53.20
2018-07-08T01:29:06.567Z,53.40
2018-07-08T01:31:35.219Z,53.70
2018-07-08T01:34:03.888Z,54.20
2018-07-08T01:36:32.528Z,54.50
2018-07-08T01:39:01.180Z,54.50
2018-07-08T01:41:29.815Z,54.80
2018-07-08T01:43:58.482Z,54.60
2018-07-08T01:46:27.176Z,54.30
2018-07-08T01:48:55.792Z,54.10
2018-07-08T01:53:52.829Z,54.30
2018-07-08T01:56:21.625Z,54.40
2018-07-08T01:58:50.319Z,54.50
2018-07-08T02:01:19.106Z,54.30
2018-07-08T02:03:47.795Z,54.60
2018-07-08T02:06:16.471Z,55.90
2018-07-08T02:08:45.233Z,55.30
2018-07-08T02:11:13.914Z,55.70
2018-07-08T02:13:42.573Z,56.20
2018-07-08T02:16:11.997Z,56.90
2018-07-08T02:18:40.692Z,56.80
2018-07-08T02:21:09.444Z,56.80
2018-07-08T02:23:38.172Z,56.80
2018-07-08T02:26:07.116Z,57.00
2018-07-08T02:28:35.784Z,57.40
2018-07-08T02:31:04.502Z,57.20
2018-07-08T02:33:33.172Z,57.00
2018-07-08T02:36:01.921Z,57.10
2018-07-08T02:38:30.720Z,57.20
2018-07-08T02:40:59.564Z,57.10
2018-07-08T02:43:28.428Z,57.70
2018-07-08T02:45:57.535Z,57.50
2018-07-08T02:48:26.779Z,57.20
2018-07-08T02:50:55.560Z,57.00
2018-07-08T02:53:24.427Z,56.80
2018-07-08T02:55:53.044Z,57.30
2018-07-08T02:58:26.563Z,57.90
2018-07-08T03:00:55.201Z,59.10
2018-07-08T03:03:23.859Z,59.50
2018-07-08T03:05:52.468Z,59.80
2018-07-08T03:08:21.084Z,59.70
2018-07-08T03:10:49.712Z,60.10
2018-07-08T03:13:18.409Z,60.30
2018-07-08T03:15:47.055Z,60.10
2018-07-08T03:18:15.664Z,59.60
2018-07-08T03:20:44.383Z,59.90
2018-07-08T03:23:13.035Z,59.90
2018-07-08T03:25:41.669Z,59.70
2018-07-08T03:28:10.323Z,59.40
2018-07-08T03:30:39.012Z,59.40
2018-07-08T03:33:07.878Z,59.70
2018-07-08T03:35:36.516Z,60.40
2018-07-08T03:38:05.136Z,61.30
2018-07-08T03:40:33.779Z,61.50
2018-07-08T03:43:02.401Z,62.20
2018-07-08T03:45:31.040Z,62.70
2018-07-08T03:47:59.663Z,62.90
2018-07-08T03:50:28.315Z,61.70
2018-07-08T03:52:56.929Z,62.70
2018-07-08T03:55:25.612Z,63.40
2018-07-08T03:57:54.228Z,63.90
2018-07-08T04:00:22.877Z,63.80
2018-07-08T04:05:19.792Z,61.30
2018-07-08T04:07:48.463Z,60.60
2018-07-08T04:10:17.087Z,60.60
2018-07-08T04:12:45.699Z,61.00
2018-07-08T04:15:14.380Z,60.90
2018-07-08T04:17:42.976Z,60.90
2018-07-08T04:20:11.644Z,61.60
2018-07-08T04:22:40.291Z,60.90
2018-07-08T04:25:08.920Z,61.10
2018-07-08T04:27:37.551Z,61.60
2018-07-08T04:30:06.353Z,62.80
2018-07-08T04:32:34.961Z,63.40
2018-07-08T04:35:03.725Z,63.60
2018-07-08T04:37:32.329Z,63.90
2018-07-08T04:40:01.008Z,64.30
2018-07-08T04:42:29.711Z,64.30
2018-07-08T04:44:58.335Z,64.10
2018-07-08T04:47:27.060Z,64.00
2018-07-08T04:49:55.759Z,64.30
2018-07-08T04:52:24.387Z,64.40
2018-07-08T04:54:53.057Z,64.20
2018-07-08T04:57:21.812Z,64.90
2018-07-08T04:59:50.503Z,64.80
2018-07-08T05:02:19.120Z,64.30
2018-07-08T05:04:47.803Z,65.10
2018-07-08T05:07:16.432Z,64.50
2018-07-08T05:09:45.103Z,63.80
2018-07-08T05:12:13.731Z,63.30
2018-07-08T05:14:42.386Z,62.80
2018-07-08T05:17:11.369Z,63.70
2018-07-08T05:19:40.044Z,63.70
2018-07-08T05:22:08.761Z,63.80
2018-07-08T05:24:37.424Z,63.60
2018-07-08T05:27:06.065Z,63.80
2018-07-08T05:29:34.711Z,64.10
2018-07-08T05:32:03.445Z,64.40
2018-07-08T05:34:32.067Z,64.50
2018-07-08T05:37:00.735Z,64.60
2018-07-08T05:39:29.372Z,64.60
2018-07-08T05:41:58.006Z,64.20
2018-07-08T05:44:26.652Z,63.80
2018-07-08T05:46:55.296Z,63.60
2018-07-08T05:49:23.920Z,62.70
2018-07-08T05:51:52.578Z,62.90
2018-07-08T05:54:21.307Z,62.60
2018-07-08T05:56:50.008Z,62.80
2018-07-08T05:59:18.711Z,62.50
2018-07-08T06:01:47.377Z,61.10
2018-07-08T06:04:16.033Z,58.60
2018-07-08T06:06:44.680Z,56.40
2018-07-08T06:09:13.324Z,55.00
2018-07-08T06:14:10.252Z,52.40
2018-07-08T06:16:38.912Z,50.10
2018-07-08T06:19:07.524Z,49.60
2018-07-08T06:21:36.144Z,48.00
2018-07-08T06:24:04.843Z,48.20
2018-07-08T06:26:33.476Z,47.50
2018-07-08T06:29:02.124Z,47.10
2018-07-08T06:31:30.777Z,46.30
2018-07-08T06:33:59.409Z,44.10
2018-07-08T06:36:28.076Z,43.60
2018-07-08T06:39:00.172Z,43.10
2018-07-08T06:41:28.975Z,42.60
2018-07-08T06:43:57.604Z,41.40
2018-07-08T06:46:29.444Z,41.20
2018-07-08T06:49:04.775Z,42.50
2018-07-08T06:51:35.193Z,40.50
2018-07-08T06:54:06.049Z,40.60
2018-07-08T06:56:36.983Z,38.80
2018-07-08T06:59:08.937Z,39.10
2018-07-08T07:01:38.369Z,36.50
2018-07-08T07:04:07.155Z,34.90
2018-07-08T07:06:35.977Z,34.30
2018-07-08T07:09:07.689Z,33.00
2018-07-08T07:11:42.836Z,32.70
2018-07-08T07:14:16.116Z,30.70
2018-07-08T07:16:45.986Z,30.70
2018-07-08T07:19:22.013Z,30.10
2018-07-08T07:21:51.660Z,30.20
2018-07-08T07:24:23.404Z,30.20
2018-07-08T07:26:53.732Z,30.40
2018-07-08T07:29:23.935Z,30.00
2018-07-08T07:31:53.336Z,29.80
2018-07-08T07:34:22.076Z,30.00
2018-07-08T07:36:53.045Z,30.10
2018-07-08T07:39:24.557Z,30.00
2018-07-08T07:41:53.186Z,29.70
2018-07-08T07:44:21.844Z,30.00
2018-07-08T07:46:50.553Z,30.00
2018-07-08T07:49:19.184Z,30.30
2018-07-08T07:51:47.822Z,30.00
2018-07-08T07:54:16.639Z,30.00
2018-07-08T07:56:45.303Z,30.40
2018-07-08T07:59:13.956Z,29.70
2018-07-08T08:01:42.679Z,29.80
2018-07-08T08:04:11.329Z,29.90
2018-07-08T08:06:40.001Z,30.00
2018-07-08T08:09:08.663Z,30.00
2018-07-08T08:11:37.346Z,30.70
2018-07-08T08:14:06.429Z,30.90
2018-07-08T08:16:35.123Z,30.40
2018-07-08T08:19:03.849Z,30.00
2018-07-08T08:21:32.570Z,30.10
2018-07-08T08:24:01.486Z,30.20
2018-07-08T08:26:30.973Z,30.40
2018-07-08T08:28:59.541Z,30.00
2018-07-08T08:31:28.428Z,30.60
2018-07-08T08:35:13.517Z,31.00
2018-07-08T08:37:43.441Z,30.60
2018-07-08T08:40:12.805Z,30.00
2018-07-08T08:42:41.468Z,30.00
2018-07-08T08:45:11.424Z,30.20
2018-07-08T08:47:40.063Z,30.40
2018-07-08T08:50:19.994Z,30.80
2018-07-08T08:52:51.408Z,30.40
2018-07-08T08:55:20.123Z,31.00
2018-07-08T08:57:48.748Z,30.00
2018-07-08T09:00:18.510Z,29.90
2018-07-08T09:02:51.464Z,30.30
2018-07-08T09:05:23.288Z,30.00
2018-07-08T09:07:52.625Z,30.90
2018-07-08T09:10:21.296Z,30.60
2018-07-08T09:12:49.952Z,30.70
2018-07-08T09:17:54.136Z,30.00
2018-07-08T09:20:23.432Z,30.30
2018-07-08T09:22:52.191Z,30.80
2018-07-08T09:25:21.159Z,31.00
2018-07-08T09:27:50.048Z,30.20
2018-07-08T09:30:18.760Z,30.10
2018-07-08T09:32:47.404Z,29.90
2018-07-08T09:35:16.063Z,30.00
2018-07-08T09:37:44.692Z,29.70
2018-07-08T09:40:16.878Z,30.00
2018-07-08T09:42:45.506Z,29.50
2018-07-08T09:45:14.123Z,29.60
2018-07-08T09:47:42.721Z,29.40
2018-07-08T09:50:11.369Z,29.30
2018-07-08T09:52:40.058Z,29.50
2018-07-08T09:55:08.663Z,29.80
2018-07-08T09:57:37.302Z,29.40
2018-07-08T10:00:06.219Z,28.90
2018-07-08T10:02:34.907Z,29.00
2018-07-08T10:05:03.575Z,28.80
2018-07-08T10:07:32.175Z,28.80
2018-07-08T10:10:00.800Z,28.20
2018-07-08T10:12:29.516Z,28.20
2018-07-08T10:14:58.117Z,28.20
2018-07-08T10:17:26.780Z,28.30
2018-07-08T10:19:55.788Z,28.50
2018-07-08T10:22:24.113Z,28.30
2018-07-08T10:24:52.737Z,28.40
2018-07-08T10:28:28.938Z,28.60
2018-07-08T10:30:58.585Z,27.90
2018-07-08T10:33:31.767Z,28.00
2018-07-08T10:36:03.478Z,28.20
2018-07-08T10:38:32.464Z,28.00
2018-07-08T10:41:01.140Z,27.70
2018-07-08T10:43:29.940Z,27.70
2018-07-08T10:45:59.038Z,27.70
2018-07-08T10:48:27.688Z,27.50
2018-07-08T10:50:56.664Z,27.30
2018-07-08T10:53:25.430Z,27.30
2018-07-08T10:55:54.130Z,27.30
2018-07-08T11:00:51.689Z,27.50
2018-07-08T11:03:20.321Z,26.60
2018-07-08T11:05:48.985Z,26.60
2018-07-08T11:08:17.657Z,27.20
2018-07-08T11:10:46.643Z,26.90
2018-07-08T11:13:15.328Z,26.80
2018-07-08T11:15:44.028Z,26.90
2018-07-08T11:18:12.636Z,27.10
2018-07-08T11:20:41.375Z,26.50
2018-07-08T11:23:10.002Z,26.50
2018-07-08T11:25:38.674Z,26.90
2018-07-08T11:28:08.132Z,26.90
2018-07-08T11:30:37.628Z,26.60
2018-07-08T11:33:06.766Z,25.80
2018-07-08T11:35:35.404Z,26.10
2018-07-08T11:38:04.096Z,25.60
2018-07-08T11:40:32.760Z,26.50
2018-07-08T11:43:01.480Z,25.90
2018-07-08T11:45:30.208Z,25.70
2018-07-08T11:47:58.853Z,26.20
2018-07-08T11:50:27.491Z,25.90
2018-07-08T11:52:56.128Z,26.00
2018-07-08T11:55:24.818Z,26.00
2018-07-08T11:57:53.411Z,25.60
2018-07-08T12:00:22.048Z,25.90
2018-07-08T12:02:50.754Z,25.50
2018-07-08T12:05:19.400Z,25.60
2018-07-08T12:07:48.034Z,25.70
2018-07-08T12:10:16.721Z,25.40
2018-07-08T12:12:45.495Z,25.30
2018-07-08T12:15:15.766Z,25.40
2018-07-08T12:17:44.781Z,25.10
2018-07-08T12:20:13.733Z,25.50
2018-07-08T12:22:42.619Z,25.00
2018-07-08T12:25:11.869Z,24.90
2018-07-08T12:27:40.627Z,25.40
2018-07-08T12:30:10.652Z,25.60
2018-07-08T12:32:40.539Z,25.60
2018-07-08T12:35:10.956Z,25.70
2018-07-08T12:37:51.317Z,25.50
2018-07-08T12:40:20.036Z,25.00
2018-07-08T12:43:24.612Z,25.50
2018-07-08T12:45:54.371Z,25.30
2018-07-08T12:48:23.076Z,26.00
2018-07-08T12:50:52.087Z,25.20
2018-07-08T12:53:20.747Z,25.20
2018-07-08T12:55:52.798Z,25.00
2018-07-08T12:58:21.900Z,25.00
2018-07-08T13:00:51.508Z,25.40
2018-07-08T13:03:20.441Z,25.20
2018-07-08T13:05:49.088Z,25.20
2018-07-08T13:08:17.732Z,25.00
2018-07-08T13:10:47.121Z,25.50
2018-07-08T13:13:15.788Z,25.70
2018-07-08T13:18:20.588Z,25.10
2018-07-08T13:20:49.232Z,24.70
2018-07-08T13:23:17.883Z,24.70
2018-07-08T13:28:14.953Z,25.90
2018-07-08T13:30:43.581Z,25.70
2018-07-08T13:33:12.772Z,25.00
2018-07-08T13:35:41.483Z,25.70
2018-07-08T13:38:10.145Z,26.60
2018-07-08T13:40:38.833Z,25.70
2018-07-08T13:43:07.985Z,25.70
2018-07-08T13:48:05.915Z,25.40
2018-07-08T13:50:34.530Z,25.90
2018-07-08T13:53:03.371Z,25.60
2018-07-08T13:55:32.053Z,25.60
2018-07-08T13:58:01.016Z,25.50
2018-07-08T14:02:57.911Z,27.00
2018-07-08T14:05:26.644Z,26.30
2018-07-08T14:07:55.435Z,26.20
2018-07-08T14:10:28.201Z,25.90
2018-07-08T14:13:01.264Z,26.10
2018-07-08T14:15:30.032Z,26.50
2018-07-08T14:17:58.716Z,26.20
2018-07-08T14:20:27.401Z,26.20
2018-07-08T14:22:56.060Z,26.50
2018-07-08T14:25:24.700Z,26.60
2018-07-08T14:27:53.448Z,26.40
2018-07-08T14:30:22.064Z,26.80
2018-07-08T14:32:50.809Z,26.50
2018-07-08T14:35:19.444Z,27.00
2018-07-08T14:37:48.074Z,26.70
2018-07-08T14:40:16.808Z,27.00
2018-07-08T14:42:45.439Z,27.20
2018-07-08T14:45:14.117Z,26.80
2018-07-08T14:47:46.019Z,26.90
2018-07-08T14:50:14.715Z,26.90
2018-07-08T14:52:43.414Z,27.30
2018-07-08T14:55:12.044Z,27.50
2018-07-08T14:57:40.744Z,27.70
2018-07-08T15:00:09.494Z,27.40
2018-07-08T15:02:38.134Z,27.60
2018-07-08T15:05:06.784Z,27.20
2018-07-08T15:07:35.536Z,27.50
2018-07-08T15:10:04.316Z,27.50
2018-07-08T15:12:32.936Z,27.50
2018-07-08T15:15:01.663Z,27.60
2018-07-08T15:17:30.288Z,28.20
2018-07-08T15:19:59.011Z,28.20
2018-07-08T15:24:56.051Z,28.10
2018-07-08T15:27:25.089Z,28.50
2018-07-08T15:30:01.380Z,27.80
2018-07-08T15:32:30.261Z,27.90
2018-07-08T15:35:02.599Z,28.70
2018-07-08T15:37:34.700Z,28.70
2018-07-08T15:40:05.316Z,28.60
2018-07-08T15:42:37.071Z,29.30
2018-07-08T15:45:14.877Z,28.80
2018-07-08T15:47:50.311Z,28.90
2018-07-08T15:50:25.167Z,29.10
2018-07-08T15:52:57.980Z,28.50
2018-07-08T15:55:28.976Z,28.90
2018-07-08T15:57:58.132Z,29.10
2018-07-08T16:00:27.431Z,29.40
2018-07-08T16:02:56.101Z,29.20
2018-07-08T16:05:26.865Z,29.20
2018-07-08T16:07:55.841Z,29.40
2018-07-08T16:10:24.637Z,29.70
2018-07-08T16:12:53.372Z,29.90
2018-07-08T16:15:22.487Z,29.90
2018-07-08T16:17:51.408Z,30.00
2018-07-08T16:20:20.778Z,30.10
2018-07-08T16:22:50.110Z,30.20
2018-07-08T16:25:18.779Z,30.10
2018-07-08T16:27:47.426Z,30.30
2018-07-08T16:30:16.117Z,30.80
2018-07-08T16:32:44.792Z,30.60
2018-07-08T16:35:13.424Z,31.10
2018-07-08T16:37:42.132Z,31.20
2018-07-08T16:40:13.924Z,30.90
2018-07-08T16:42:43.357Z,31.10
2018-07-08T16:45:12.241Z,31.50
2018-07-08T16:47:41.584Z,31.30
2018-07-08T16:50:10.421Z,31.10
2018-07-08T16:52:39.296Z,31.50
2018-07-08T16:55:07.943Z,31.60
2018-07-08T16:57:36.578Z,31.70
2018-07-08T17:00:06.105Z,32.00
2018-07-08T17:02:34.774Z,31.80
2018-07-08T17:05:03.576Z,32.10
2018-07-08T17:07:32.253Z,31.90
2018-07-08T17:10:01.031Z,32.20
2018-07-08T17:12:29.731Z,32.50
2018-07-08T17:14:58.360Z,32.20
2018-07-08T17:17:27.777Z,32.40
2018-07-08T17:19:56.564Z,32.40
2018-07-08T17:22:25.325Z,32.90
2018-07-08T17:24:53.985Z,32.90
2018-07-08T17:27:22.613Z,32.90
2018-07-08T17:29:51.412Z,33.10
2018-07-08T17:32:20.038Z,33.30
2018-07-08T17:34:48.785Z,33.60
2018-07-08T17:37:17.641Z,33.70
2018-07-08T17:39:46.269Z,34.10
2018-07-08T17:42:14.932Z,34.40
2018-07-08T17:44:43.724Z,34.80
2018-07-08T17:47:12.480Z,34.80
2018-07-08T17:51:05.560Z,35.00
2018-07-08T17:53:34.423Z,35.10
2018-07-08T17:56:03.556Z,35.30
2018-07-08T17:58:32.220Z,35.40
2018-07-08T18:01:00.856Z,35.60
2018-07-08T18:03:29.472Z,35.70
2018-07-08T18:05:58.152Z,36.10
2018-07-08T18:08:26.777Z,36.00
2018-07-08T18:10:55.401Z,36.10
2018-07-08T18:13:24.020Z,36.30
2018-07-08T18:15:52.652Z,36.40
2018-07-08T18:18:21.331Z,36.20
2018-07-08T18:20:49.983Z,36.50
2018-07-08T18:23:18.667Z,36.70
2018-07-08T18:25:47.326Z,36.90
2018-07-08T18:28:15.991Z,37.80
2018-07-08T18:30:44.671Z,37.70
2018-07-08T18:33:13.591Z,37.60
2018-07-08T18:35:42.207Z,37.80
2018-07-08T18:38:10.900Z,38.40
2018-07-08T18:40:39.532Z,38.50
2018-07-08T18:43:08.169Z,39.40
2018-07-08T18:48:06.294Z,40.80
2018-07-08T18:50:35.089Z,41.30
2018-07-08T18:53:05.274Z,43.40
2018-07-08T18:55:34.133Z,44.20
2018-07-08T18:58:03.237Z,44.40
2018-07-08T19:00:32.061Z,44.90
2018-07-08T19:03:00.692Z,43.50
2018-07-08T19:05:29.393Z,45.20
2018-07-08T19:07:58.029Z,44.40
2018-07-08T19:10:26.654Z,44.90
2018-07-08T19:12:59.056Z,44.90
2018-07-08T19:15:30.797Z,45.10
2018-07-08T19:18:00.298Z,44.70
2018-07-08T19:20:29.080Z,45.10
2018-07-08T19:22:57.759Z,45.90
2018-07-08T19:25:26.384Z,47.20
2018-07-08T19:27:54.987Z,46.60
2018-07-08T19:30:23.656Z,46.60
2018-07-08T19:35:35.400Z,47.70
2018-07-08T19:38:04.052Z,48.00
2018-07-08T19:40:32.761Z,48.40
2018-07-08T19:43:02.044Z,48.80
2018-07-08T19:45:30.670Z,48.90
2018-07-08T19:47:59.296Z,48.90
2018-07-08T19:50:28.013Z,48.80
2018-07-08T19:52:56.869Z,49.20
2018-07-08T19:55:25.524Z,48.70
2018-07-08T19:57:54.792Z,48.90
2018-07-08T20:00:23.416Z,49.20
2018-07-08T20:02:55.521Z,49.30
2018-07-08T20:05:24.260Z,49.40
2018-07-08T20:07:52.971Z,49.00
2018-07-08T20:10:21.635Z,49.90
2018-07-08T20:12:50.324Z,49.70
2018-07-08T20:15:19.024Z,50.60
2018-07-08T20:17:47.760Z,51.00
2018-07-08T20:20:17.257Z,52.20
2018-07-08T20:22:45.964Z,53.30
2018-07-08T20:25:14.724Z,54.10
2018-07-08T20:27:43.973Z,54.60
2018-07-08T20:30:14.912Z,54.90
2018-07-08T20:33:13.334Z,54.80
2018-07-08T20:36:11.973Z,54.50
2018-07-08T20:38:58.901Z,54.90
2018-07-08T20:41:35.154Z,55.20
2018-07-08T20:44:14.400Z,55.10
2018-07-08T20:46:47.255Z,54.80
2018-07-08T20:52:13.610Z,53.80
2018-07-08T20:54:42.377Z,51.90
2018-07-08T20:57:11.171Z,51.40
2018-07-08T20:59:53.523Z,50.30
2018-07-08T21:02:49.334Z,49.80
2018-07-08T21:05:19.132Z,49.70
2018-07-08T21:07:51.602Z,50.20
2018-07-08T21:10:36.028Z,47.90
2018-07-08T21:13:13.960Z,45.90
2018-07-08T21:15:58.783Z,45.70
2018-07-08T21:18:33.651Z,44.80
2018-07-08T21:21:05.779Z,43.80
2018-07-08T21:23:40.238Z,44.30
2018-07-08T21:28:45.380Z,42.10
2018-07-08T21:31:31.885Z,43.20
2018-07-08T21:34:14.923Z,42.30
2018-07-08T21:39:25.866Z,40.90
2018-07-08T21:42:05.965Z,40.30
2018-07-08T21:44:50.688Z,40.40
2018-07-08T21:47:37.551Z,39.70
2018-07-08T21:50:18.101Z,40.30
2018-07-08T21:52:58.763Z,40.20
2018-07-08T21:55:40.782Z,41.00
2018-07-08T22:01:22.414Z,40.60
2018-07-08T22:13:26.625Z,41.30
2018-07-08T22:16:24.450Z,41.20
2018-07-08T22:19:09.609Z,41.60
2018-07-08T22:27:18.369Z,42.60
2018-07-08T22:29:47.077Z,43.00
2018-07-08T22:34:44.306Z,43.50
2018-07-08T22:37:12.977Z,43.40
2018-07-08T22:39:41.652Z,43.00
2018-07-08T22:42:10.346Z,43.40
2018-07-08T22:44:39.052Z,43.60
2018-07-08T22:47:07.707Z,43.00
2018-07-08T22:49:36.435Z,43.10
2018-07-08T22:52:05.109Z,43.80
2018-07-08T22:54:33.900Z,43.50
2018-07-08T22:57:02.604Z,44.30
2018-07-08T22:59:39.188Z,44.70
2018-07-08T23:02:18.656Z,44.10
2018-07-08T23:04:47.312Z,44.30
2018-07-08T23:07:16.169Z,44.50
2018-07-08T23:09:44.884Z,44.80
2018-07-08T23:12:13.783Z,44.50
2018-07-08T23:14:42.736Z,44.10
2018-07-08T23:17:11.386Z,44.60
2018-07-08T23:19:40.080Z,44.80
2018-07-08T23:22:08.829Z,45.20
2018-07-08T23:27:06.073Z,45.50
2018-07-08T23:29:34.767Z,45.40
2018-07-08T23:32:03.580Z,45.10
2018-07-08T23:34:32.813Z,45.20
2018-07-08T23:37:01.503Z,45.00
2018-07-08T23:39:31.529Z,44.90
2018-07-08T23:42:00.320Z,45.10
2018-07-08T23:44:29.006Z,45.30
2018-07-08T23:46:57.616Z,45.60
2018-07-08T23:49:26.308Z,45.80
2018-07-08T23:51:55.100Z,46.30
2018-07-08T23:54:23.922Z,46.30
2018-07-08T23:56:52.588Z,46.70
2018-07-08T23:59:21.359Z,46.80
